Terminal Aerodrome Forecast
Issued by NWS Wilmington, OH

Current Version | Previous Version | Graphics & Text | Print | Product List | Glossary On
Versions: 1 2 3 4 5 6 7 8 9 10 11 12 13 14 15 16 17 18 19 20 21 22 23 24 25
242
FTUS41 KILN 221307 AAA
TAFCMH
TAF AMD
KCMH 221307Z 2213/2312 06011KT P6SM -RA SCT015 OVC040
      TEMPO 2213/2215 5SM -RA BR OVC015
     FM221500 05009KT P6SM SCT015 OVC040
     FM230200 07004KT P6SM OVC012
     FM230900 10004KT 4SM -SHRA BR OVC007=

USA.gov is the U.S. government's official web portal to all federal, state and local government web resources and services.